createdAt,value
2023-03-03T00:01:52.126Z,100970.88
2023-03-03T00:04:18.737Z,100970.11
2023-03-03T00:06:45.867Z,100975.33
2023-03-03T00:09:12.743Z,100977.66
2023-03-03T00:11:39.440Z,100978.82
2023-03-03T00:14:18.230Z,100983.46
2023-03-03T00:16:45.208Z,100980.13
2023-03-03T00:19:18.013Z,100979.90
2023-03-03T00:21:47.043Z,100988.20
2023-03-03T00:24:17.132Z,100995.21
2023-03-03T00:26:49.169Z,100993.60
2023-03-03T00:29:35.392Z,100995.98
2023-03-03T00:32:15.480Z,100987.70
2023-03-03T00:34:43.806Z,100985.47
2023-03-03T00:37:28.313Z,100979.42
2023-03-03T00:40:18.084Z,100973.66
2023-03-03T00:42:53.593Z,100980.77
2023-03-03T00:45:28.045Z,100978.48
2023-03-03T00:47:56.556Z,100974.70
2023-03-03T00:50:36.201Z,100978.65
2023-03-03T00:53:11.658Z,100973.79
2023-03-03T00:55:39.291Z,100971.14
2023-03-03T00:58:06.921Z,100973.56
2023-03-03T01:00:37.820Z,100968.35
2023-03-03T01:03:09.922Z,100967.95
2023-03-03T01:05:37.579Z,100964.76
2023-03-03T01:08:04.941Z,100961.96
2023-03-03T01:10:36.656Z,100963.16
2023-03-03T01:13:03.904Z,100960.41
2023-03-03T01:15:30.980Z,100958.21
2023-03-03T01:17:57.811Z,100951.44
2023-03-03T01:20:24.230Z,100950.61
2023-03-03T01:22:50.749Z,100944.98
2023-03-03T01:25:17.349Z,100942.11
2023-03-03T01:27:44.301Z,100943.66
2023-03-03T01:30:11.402Z,100937.48
2023-03-03T01:32:37.864Z,100935.61
2023-03-03T01:35:05.111Z,100927.50
2023-03-03T01:37:34.265Z,100926.04
2023-03-03T01:40:00.737Z,100928.01
2023-03-03T01:42:29.469Z,100926.35
2023-03-03T01:45:31.311Z,100920.72
2023-03-03T01:48:09.724Z,100916.19
2023-03-03T01:50:47.489Z,100918.30
2023-03-03T01:53:21.677Z,100913.73
2023-03-03T01:55:50.383Z,100910.58
2023-03-03T01:58:25.968Z,100909.98
2023-03-03T02:01:00.306Z,100906.48
2023-03-03T02:03:27.469Z,100907.48
2023-03-03T02:05:58.388Z,100907.35
2023-03-03T02:08:30.598Z,100909.78
2023-03-03T02:10:57.675Z,100909.05
2023-03-03T02:13:24.210Z,100911.98
2023-03-03T02:15:50.912Z,100905.39
2023-03-03T02:18:19.619Z,100897.29
2023-03-03T02:20:59.738Z,100890.23
2023-03-03T02:23:34.871Z,100885.93
2023-03-03T02:26:06.082Z,100884.87
2023-03-03T02:28:35.101Z,100893.02
2023-03-03T02:31:02.511Z,100899.15
2023-03-03T02:33:29.142Z,100900.39
2023-03-03T02:35:55.740Z,100901.58
2023-03-03T02:38:27.026Z,100895.87
2023-03-03T02:41:03.384Z,100893.81
2023-03-03T02:43:38.715Z,100896.38
2023-03-03T02:46:05.319Z,100892.84
2023-03-03T02:48:31.992Z,100901.14
2023-03-03T02:50:58.406Z,100907.27
2023-03-03T02:53:24.832Z,100912.44
2023-03-03T02:55:51.322Z,100915.55
2023-03-03T02:58:18.403Z,100924.25
2023-03-03T03:00:47.098Z,100928.46
2023-03-03T03:03:14.079Z,100933.32
2023-03-03T03:05:40.519Z,100934.80
2023-03-03T03:08:09.602Z,100935.67
2023-03-03T03:10:36.533Z,100938.38
2023-03-03T03:13:03.064Z,100935.17
2023-03-03T03:15:29.634Z,100931.23
2023-03-03T03:17:56.243Z,100936.98
2023-03-03T03:20:22.980Z,100933.92
2023-03-03T03:22:49.460Z,100931.40
2023-03-03T03:25:16.067Z,100921.80
2023-03-03T03:27:42.633Z,100911.95
2023-03-03T03:30:09.544Z,100909.16
2023-03-03T03:32:36.051Z,100902.13
2023-03-03T03:35:02.564Z,100901.26
2023-03-03T03:37:29.151Z,100896.22
2023-03-03T03:39:55.829Z,100891.77
2023-03-03T03:42:22.222Z,100894.79
2023-03-03T03:44:50.477Z,100887.18
2023-03-03T03:47:17.111Z,100891.58
2023-03-03T03:49:43.604Z,100899.05
2023-03-03T03:52:10.053Z,100910.47
2023-03-03T03:54:36.436Z,100913.55
2023-03-03T03:57:03.086Z,100909.93
2023-03-03T03:59:29.515Z,100907.97
2023-03-03T04:01:56.149Z,100914.42
2023-03-03T04:04:22.917Z,100917.40
2023-03-03T04:06:49.542Z,100920.77
2023-03-03T04:09:16.180Z,100922.34
2023-03-03T04:11:42.669Z,100931.19
2023-03-03T04:14:09.224Z,100930.13
2023-03-03T04:16:35.971Z,100932.07
2023-03-03T04:19:02.493Z,100934.73
2023-03-03T04:21:29.443Z,100941.92
2023-03-03T04:23:56.239Z,100941.69
2023-03-03T04:26:22.694Z,100943.79
2023-03-03T04:28:49.342Z,100939.40
2023-03-03T04:31:15.858Z,100939.52
2023-03-03T04:33:42.320Z,100927.94
2023-03-03T04:36:09.215Z,100937.73
2023-03-03T04:38:35.689Z,100950.74
2023-03-03T04:41:02.253Z,100954.54
2023-03-03T04:43:29.059Z,100956.80
2023-03-03T04:45:55.571Z,100956.29
2023-03-03T04:48:22.230Z,100956.23
2023-03-03T04:50:48.812Z,100958.48
2023-03-03T04:53:15.553Z,100961.60
2023-03-03T04:55:44.033Z,100956.23
2023-03-03T04:58:13.463Z,100955.41
2023-03-03T05:00:41.982Z,100947.16
2023-03-03T05:03:11.340Z,100948.09
2023-03-03T05:05:37.908Z,100949.38
2023-03-03T05:08:04.575Z,100949.88
2023-03-03T05:10:31.127Z,100948.01
2023-03-03T05:12:57.598Z,100948.63
2023-03-03T05:15:24.133Z,100946.27
2023-03-03T05:17:52.860Z,100944.02
2023-03-03T05:20:19.298Z,100936.95
2023-03-03T05:22:46.462Z,100929.68
2023-03-03T05:25:13.138Z,100935.18
2023-03-03T05:27:39.574Z,100946.35
2023-03-03T05:30:06.844Z,100952.72
2023-03-03T05:32:33.370Z,100942.65
2023-03-03T05:34:59.980Z,100940.96
2023-03-03T05:37:26.360Z,100940.18
2023-03-03T05:39:52.749Z,100935.92
2023-03-03T05:42:19.223Z,100930.10
2023-03-03T05:44:45.669Z,100936.02
2023-03-03T05:47:12.234Z,100936.66
2023-03-03T05:49:39.484Z,100941.70
2023-03-03T05:52:08.551Z,100945.77
2023-03-03T05:54:35.719Z,100942.80
2023-03-03T05:57:02.968Z,100940.79
2023-03-03T05:59:29.495Z,100947.20
2023-03-03T06:01:55.880Z,100948.89
2023-03-03T06:04:22.401Z,100948.34
2023-03-03T06:06:49.035Z,100950.54
2023-03-03T06:09:17.015Z,100952.55
2023-03-03T06:11:43.506Z,100953.52
2023-03-03T06:14:09.940Z,100957.59
2023-03-03T06:16:36.628Z,100952.33
2023-03-03T06:19:03.199Z,100949.12
2023-03-03T06:21:29.667Z,100954.11
2023-03-03T06:23:56.199Z,100970.31
2023-03-03T06:26:23.236Z,100979.24
2023-03-03T06:28:53.489Z,100985.28
2023-03-03T06:31:20.213Z,100988.17
2023-03-03T06:33:46.667Z,100993.23
2023-03-03T06:36:13.184Z,100987.76
2023-03-03T06:38:39.640Z,100986.94
2023-03-03T06:41:07.885Z,100978.42
2023-03-03T06:43:35.362Z,100972.70
2023-03-03T06:46:02.688Z,100980.11
2023-03-03T06:48:30.560Z,100978.28
2023-03-03T06:50:59.248Z,100976.86
2023-03-03T06:53:26.553Z,100980.56
2023-03-03T06:55:55.181Z,100986.52
2023-03-03T06:58:22.206Z,100990.82
2023-03-03T07:00:54.419Z,100994.66
2023-03-03T07:03:27.669Z,100999.20
2023-03-03T07:05:54.225Z,101002.58
2023-03-03T07:08:23.295Z,101001.71
2023-03-03T07:10:51.161Z,101008.12
2023-03-03T07:13:25.855Z,101014.98
2023-03-03T07:15:54.099Z,101017.27
2023-03-03T07:18:43.938Z,101019.73
2023-03-03T07:21:24.389Z,101024.08
2023-03-03T07:23:53.860Z,101026.59
2023-03-03T07:26:29.983Z,101020.32
2023-03-03T07:29:32.794Z,101030.40
2023-03-03T07:32:01.222Z,101024.86
2023-03-03T07:34:37.829Z,101022.26
2023-03-03T07:37:13.563Z,101017.04
2023-03-03T07:39:43.267Z,101014.98
2023-03-03T07:42:28.162Z,101012.92
2023-03-03T07:44:56.509Z,101013.02
2023-03-03T07:47:25.601Z,101012.64
2023-03-03T07:49:57.734Z,101013.02
2023-03-03T07:52:30.713Z,101014.23
2023-03-03T07:55:00.697Z,101022.79
2023-03-03T07:57:34.503Z,101025.48
2023-03-03T08:00:28.487Z,101024.63
2023-03-03T08:03:00.807Z,101023.72
2023-03-03T08:05:40.786Z,101023.99
2023-03-03T08:08:30.693Z,101012.46
2023-03-03T08:11:01.439Z,101013.41
2023-03-03T08:13:38.195Z,101015.06
2023-03-03T08:16:11.267Z,101018.77
2023-03-03T08:18:39.741Z,101017.26
2023-03-03T08:21:09.782Z,101018.95
2023-03-03T08:23:36.337Z,101019.45
2023-03-03T08:26:02.786Z,101017.95
2023-03-03T08:28:29.418Z,101014.75
2023-03-03T08:31:12.971Z,101010.48
2023-03-03T08:33:43.429Z,101009.66
2023-03-03T08:36:10.432Z,101004.45
2023-03-03T08:38:36.896Z,100999.64
2023-03-03T08:41:04.064Z,100997.45
2023-03-03T08:43:30.742Z,101005.09
2023-03-03T08:46:00.006Z,101006.41
2023-03-03T08:48:27.525Z,101014.69
2023-03-03T08:50:54.093Z,101021.29
2023-03-03T08:53:21.767Z,101029.70
2023-03-03T08:55:48.809Z,101032.27
2023-03-03T08:58:17.440Z,101033.88
2023-03-03T09:00:44.700Z,101032.60
2023-03-03T09:03:12.147Z,101033.55
2023-03-03T09:05:39.363Z,101032.23
2023-03-03T09:08:07.164Z,101040.06
2023-03-03T09:10:34.940Z,101036.98
2023-03-03T09:13:11.272Z,101037.08
2023-03-03T09:15:38.370Z,101041.10
2023-03-03T09:18:08.085Z,101047.38
2023-03-03T09:20:44.904Z,101046.38
2023-03-03T09:23:23.529Z,101050.23
2023-03-03T09:25:51.262Z,101050.97
2023-03-03T09:28:26.212Z,101053.71
2023-03-03T09:30:54.334Z,101058.94
2023-03-03T09:33:30.094Z,101058.62
2023-03-03T09:36:03.909Z,101058.94
2023-03-03T09:38:32.703Z,101059.39
2023-03-03T09:41:27.939Z,101060.27
2023-03-03T09:43:54.704Z,101064.52
2023-03-03T09:46:21.146Z,101060.94
2023-03-03T09:48:50.592Z,101055.58
2023-03-03T09:51:23.083Z,101059.16
2023-03-03T09:54:17.310Z,101061.49
2023-03-03T09:56:47.040Z,101064.20
2023-03-03T09:59:31.649Z,101060.13
2023-03-03T10:02:29.574Z,101064.39
2023-03-03T10:05:14.338Z,101066.95
2023-03-03T10:07:41.078Z,101069.33
2023-03-03T10:10:22.894Z,101062.88
2023-03-03T10:13:04.712Z,101059.45
2023-03-03T10:15:47.781Z,101060.73
2023-03-03T10:18:36.487Z,101058.75
2023-03-03T10:21:11.624Z,101057.25
2023-03-03T10:23:37.946Z,101059.31
2023-03-03T10:26:38.451Z,101064.54
2023-03-03T10:29:22.190Z,101063.73
2023-03-03T10:32:02.391Z,101066.27
2023-03-03T10:34:47.843Z,101065.09
2023-03-03T10:37:28.848Z,101061.20
2023-03-03T10:39:56.659Z,101058.13
2023-03-03T10:42:53.781Z,101058.95
2023-03-03T10:45:26.438Z,101055.20
2023-03-03T10:48:05.224Z,101054.60
2023-03-03T10:50:34.677Z,101057.34
2023-03-03T10:53:36.020Z,101057.25
2023-03-03T10:56:12.061Z,101059.73
2023-03-03T10:59:05.446Z,101053.91
2023-03-03T11:01:56.532Z,101049.61
2023-03-03T11:04:50.660Z,101044.81
2023-03-03T11:07:40.230Z,101036.60
2023-03-03T11:10:51.062Z,101032.02
2023-03-03T11:13:36.267Z,101022.92
2023-03-03T11:16:14.612Z,101018.98
2023-03-03T11:18:46.982Z,101022.54
2023-03-03T11:21:23.648Z,101021.86
2023-03-03T11:23:55.661Z,101019.20
2023-03-03T11:27:04.636Z,101021.90
2023-03-03T11:29:52.906Z,101021.42
2023-03-03T11:32:32.640Z,101019.33
2023-03-03T11:35:24.577Z,101017.77
2023-03-03T11:38:00.267Z,101009.61
2023-03-03T11:40:32.170Z,101012.50
2023-03-03T11:43:36.184Z,101015.94
2023-03-03T11:46:11.555Z,101011.73
2023-03-03T11:48:49.031Z,101013.70
2023-03-03T11:51:23.781Z,101005.54
2023-03-03T11:53:50.348Z,101004.63
2023-03-03T11:56:29.738Z,100999.66
2023-03-03T11:59:20.370Z,101002.48
2023-03-03T12:01:57.279Z,101008.63
2023-03-03T12:04:36.943Z,101006.70
2023-03-03T12:07:19.957Z,101003.44
2023-03-03T12:10:17.664Z,101007.02
2023-03-03T12:13:22.976Z,101004.23
2023-03-03T12:16:05.843Z,100999.28
2023-03-03T12:18:44.780Z,100994.20
2023-03-03T12:21:45.641Z,100989.11
2023-03-03T12:24:44.643Z,100985.98
2023-03-03T12:27:23.137Z,100989.27
2023-03-03T12:30:10.044Z,100984.77
2023-03-03T12:32:57.473Z,100983.25
2023-03-03T12:35:35.189Z,100988.79
2023-03-03T12:38:21.151Z,100987.73
2023-03-03T12:41:00.998Z,100985.63
2023-03-03T12:43:56.000Z,100980.09
2023-03-03T12:47:01.471Z,100983.16
2023-03-03T12:50:06.534Z,100983.08
2023-03-03T12:52:37.104Z,100979.27
2023-03-03T12:55:05.485Z,100968.88
2023-03-03T12:57:43.498Z,100979.55
2023-03-03T13:00:10.511Z,100980.98
2023-03-03T13:02:53.156Z,100976.70
2023-03-03T13:06:01.360Z,100977.48
2023-03-03T13:08:46.961Z,100975.30
2023-03-03T13:11:35.042Z,100971.77
2023-03-03T13:14:10.500Z,100968.92
2023-03-03T13:16:49.034Z,100973.46
2023-03-03T13:19:20.653Z,100972.42
2023-03-03T13:21:52.903Z,100979.39
2023-03-03T13:24:33.820Z,100972.20
2023-03-03T13:27:05.818Z,100975.23
2023-03-03T13:29:35.074Z,100975.33
2023-03-03T13:32:13.881Z,100968.76
2023-03-03T13:35:14.095Z,100968.27
2023-03-03T13:37:47.200Z,100963.83
2023-03-03T13:40:13.725Z,100955.48
2023-03-03T13:42:44.715Z,100961.62
2023-03-03T13:45:35.260Z,100969.23
2023-03-03T13:48:22.814Z,100968.09
2023-03-03T13:50:53.645Z,100958.25
2023-03-03T13:53:52.804Z,100957.39
2023-03-03T13:57:09.775Z,100961.66
2023-03-03T14:00:30.713Z,100961.44
2023-03-03T14:03:27.837Z,100955.91
2023-03-03T14:06:04.029Z,100958.38
2023-03-03T14:08:52.460Z,100948.40
2023-03-03T14:11:51.541Z,100951.80
2023-03-03T14:14:29.300Z,100945.14
2023-03-03T14:17:00.524Z,100936.70
2023-03-03T14:19:39.162Z,100939.63
2023-03-03T14:22:15.950Z,100939.46
2023-03-03T14:25:01.971Z,100935.58
2023-03-03T14:27:47.096Z,100929.80
2023-03-03T14:30:23.308Z,100930.81
2023-03-03T14:33:19.376Z,100932.70
2023-03-03T14:35:58.503Z,100933.48
2023-03-03T14:38:37.576Z,100932.70
2023-03-03T14:41:15.006Z,100934.75
2023-03-03T14:43:42.362Z,100930.19
2023-03-03T14:46:28.932Z,100923.84
2023-03-03T14:48:58.063Z,100922.13
2023-03-03T14:51:28.538Z,100920.89
2023-03-03T14:53:57.099Z,100926.95
2023-03-03T14:56:35.630Z,100927.19
2023-03-03T14:59:22.868Z,100925.30
2023-03-03T15:02:00.253Z,100927.42
2023-03-03T15:04:28.021Z,100923.52
2023-03-03T15:06:55.105Z,100917.42
2023-03-03T15:09:26.745Z,100916.64
2023-03-03T15:11:55.118Z,100911.17
2023-03-03T15:14:42.422Z,100906.61
2023-03-03T15:17:27.702Z,100898.84
2023-03-03T15:20:03.609Z,100902.41
2023-03-03T15:22:37.034Z,100900.85
2023-03-03T15:25:10.979Z,100896.93
2023-03-03T15:27:42.540Z,100894.17
2023-03-03T15:30:15.152Z,100894.20
2023-03-03T15:32:58.099Z,100896.59
2023-03-03T15:35:51.081Z,100895.38
2023-03-03T15:38:48.567Z,100891.99
2023-03-03T15:41:30.460Z,100886.70
2023-03-03T15:44:06.719Z,100885.84
2023-03-03T15:46:44.842Z,100881.70
2023-03-03T15:49:39.504Z,100885.80
2023-03-03T15:52:22.021Z,100884.95
2023-03-03T15:54:48.689Z,100887.81
2023-03-03T15:57:24.442Z,100891.42
2023-03-03T16:00:15.830Z,100888.90
2023-03-03T16:02:42.406Z,100890.40
2023-03-03T16:05:11.578Z,100891.36
2023-03-03T16:07:45.188Z,100892.34
2023-03-03T16:10:40.293Z,100892.76
2023-03-03T16:13:07.399Z,100894.52
2023-03-03T16:15:42.161Z,100889.32
2023-03-03T16:18:14.881Z,100890.16
2023-03-03T16:21:19.802Z,100889.23
2023-03-03T16:23:49.520Z,100894.31
2023-03-03T16:26:35.092Z,100895.63
2023-03-03T16:29:44.580Z,100896.59
2023-03-03T16:32:22.989Z,100891.57
2023-03-03T16:34:58.060Z,100886.42
2023-03-03T16:37:50.719Z,100891.05
2023-03-03T16:40:23.838Z,100887.34
2023-03-03T16:42:58.256Z,100890.73
2023-03-03T16:45:34.190Z,100889.92
2023-03-03T16:48:21.857Z,100889.33
2023-03-03T16:51:06.444Z,100901.03
2023-03-03T16:53:50.420Z,100900.85
2023-03-03T16:56:44.410Z,100904.81
2023-03-03T16:59:40.542Z,100907.28
2023-03-03T17:02:37.276Z,100907.58
2023-03-03T17:05:10.166Z,100907.61
2023-03-03T17:07:40.017Z,100898.98
2023-03-03T17:10:27.677Z,100892.55
2023-03-03T17:12:54.260Z,100889.08
2023-03-03T17:15:30.229Z,100895.14
2023-03-03T17:18:24.629Z,100898.73
2023-03-03T17:21:01.366Z,100905.63
2023-03-03T17:23:30.732Z,100910.52
2023-03-03T17:26:16.439Z,100909.09
2023-03-03T17:29:11.641Z,100914.25
2023-03-03T17:31:58.556Z,100912.88
2023-03-03T17:34:38.949Z,100907.33
2023-03-03T17:37:15.968Z,100912.18
2023-03-03T17:40:23.613Z,100908.65
2023-03-03T17:42:52.988Z,100904.57
2023-03-03T17:45:20.187Z,100911.26
2023-03-03T17:47:55.876Z,100908.02
2023-03-03T17:50:44.260Z,100905.19
2023-03-03T17:53:32.301Z,100901.80
2023-03-03T17:56:14.190Z,100901.19
2023-03-03T17:59:06.739Z,100906.60
2023-03-03T18:01:45.411Z,100902.45
2023-03-03T18:04:11.935Z,100901.80
2023-03-03T18:06:41.468Z,100903.95
2023-03-03T18:09:26.755Z,100905.68
2023-03-03T18:12:11.693Z,100905.31
2023-03-03T18:15:03.013Z,100901.88
2023-03-03T18:17:32.334Z,100905.27
2023-03-03T18:20:12.606Z,100911.27
2023-03-03T18:22:47.528Z,100905.59
2023-03-03T18:25:16.413Z,100908.14
2023-03-03T18:27:59.041Z,100909.05
2023-03-03T18:30:28.410Z,100905.77
2023-03-03T18:32:55.182Z,100902.99
2023-03-03T18:35:26.303Z,100901.81
2023-03-03T18:37:53.374Z,100902.85
2023-03-03T18:40:33.609Z,100905.17
2023-03-03T18:43:38.841Z,100903.94
2023-03-03T18:46:08.731Z,100907.02
2023-03-03T18:48:55.262Z,100911.23
2023-03-03T18:51:34.163Z,100911.24
2023-03-03T18:54:13.751Z,100913.77
2023-03-03T18:56:52.517Z,100916.02
2023-03-03T18:59:31.899Z,100917.91
2023-03-03T19:02:25.036Z,100917.73
2023-03-03T19:05:22.858Z,100918.48
2023-03-03T19:07:52.803Z,100918.44
2023-03-03T19:10:22.155Z,100915.09
2023-03-03T19:13:13.417Z,100913.77
2023-03-03T19:15:49.039Z,100917.00
2023-03-03T19:18:18.968Z,100915.81
2023-03-03T19:20:48.319Z,100915.90
2023-03-03T19:23:17.941Z,100910.49
2023-03-03T19:25:44.692Z,100910.50
2023-03-03T19:28:14.266Z,100916.27
2023-03-03T19:31:18.213Z,100916.87
2023-03-03T19:34:16.499Z,100926.08
2023-03-03T19:36:52.096Z,100926.13
2023-03-03T19:39:28.070Z,100925.06
2023-03-03T19:42:22.650Z,100922.63
2023-03-03T19:44:56.916Z,100916.58
2023-03-03T19:47:44.047Z,100916.63
2023-03-03T19:50:28.830Z,100914.56
2023-03-03T19:53:10.918Z,100911.82
2023-03-03T19:55:44.478Z,100912.46
2023-03-03T19:58:42.070Z,100903.81
2023-03-03T20:01:41.007Z,100908.67
2023-03-03T20:04:10.132Z,100900.25
2023-03-03T20:06:41.850Z,100902.36
2023-03-03T20:09:19.537Z,100905.83
2023-03-03T20:12:03.752Z,100904.31
2023-03-03T20:14:43.911Z,100908.06
2023-03-03T20:17:16.718Z,100903.02
2023-03-03T20:20:06.508Z,100894.01
2023-03-03T20:22:39.038Z,100898.77
2023-03-03T20:25:23.552Z,100896.35
2023-03-03T20:27:59.796Z,100901.90
2023-03-03T20:31:03.913Z,100904.80
2023-03-03T20:33:55.681Z,100904.30
2023-03-03T20:36:46.736Z,100902.10
2023-03-03T20:39:39.111Z,100899.28
2023-03-03T20:42:22.670Z,100892.60
2023-03-03T20:45:01.100Z,100894.75
2023-03-03T20:47:30.378Z,100892.65
2023-03-03T20:50:18.491Z,100889.59
2023-03-03T20:53:01.640Z,100891.23
2023-03-03T20:55:39.332Z,100891.83
2023-03-03T20:58:36.935Z,100891.21
2023-03-03T21:01:09.195Z,100889.20
2023-03-03T21:03:41.799Z,100890.70
2023-03-03T21:06:20.165Z,100887.73
2023-03-03T21:08:54.946Z,100887.54
2023-03-03T21:11:30.713Z,100887.59
2023-03-03T21:13:58.896Z,100882.70
2023-03-03T21:16:26.076Z,100880.58
2023-03-03T21:19:08.847Z,100872.58
2023-03-03T21:21:41.392Z,100874.55
2023-03-03T21:24:19.288Z,100868.74
2023-03-03T21:26:51.796Z,100865.23
2023-03-03T21:29:24.286Z,100862.09
2023-03-03T21:31:55.937Z,100859.65
2023-03-03T21:34:30.128Z,100857.50
2023-03-03T21:36:58.340Z,100852.22
2023-03-03T21:39:26.100Z,100850.25
2023-03-03T21:41:58.718Z,100843.20
2023-03-03T21:44:35.573Z,100842.14
2023-03-03T21:47:03.650Z,100846.73
2023-03-03T21:49:30.233Z,100835.66
2023-03-03T21:51:57.176Z,100833.42
2023-03-03T21:54:24.146Z,100836.40
2023-03-03T21:56:50.787Z,100833.14
2023-03-03T21:59:17.920Z,100829.70
2023-03-03T22:01:45.115Z,100827.77
2023-03-03T22:04:11.775Z,100821.49
2023-03-03T22:06:38.233Z,100821.49
2023-03-03T22:09:05.568Z,100824.06
2023-03-03T22:11:32.699Z,100824.77
2023-03-03T22:13:59.054Z,100818.85
2023-03-03T22:16:25.696Z,100819.52
2023-03-03T22:18:55.037Z,100814.58
2023-03-03T22:21:21.683Z,100812.98
2023-03-03T22:23:48.283Z,100812.44
2023-03-03T22:26:15.455Z,100809.55
2023-03-03T22:28:44.160Z,100805.09
2023-03-03T22:31:11.432Z,100803.22
2023-03-03T22:33:38.267Z,100798.82
2023-03-03T22:36:05.554Z,100794.15
2023-03-03T22:38:34.035Z,100788.08
2023-03-03T22:41:03.375Z,100786.84
2023-03-03T22:43:30.380Z,100782.77
2023-03-03T22:45:57.683Z,100779.58
2023-03-03T22:48:25.884Z,100778.48
2023-03-03T22:50:53.419Z,100773.03
2023-03-03T22:53:21.328Z,100766.08
2023-03-03T22:55:47.725Z,100766.34
2023-03-03T22:58:19.120Z,100764.36
2023-03-03T23:00:49.261Z,100768.61
2023-03-03T23:03:16.427Z,100765.59
2023-03-03T23:05:43.362Z,100760.15
2023-03-03T23:08:12.891Z,100756.14
2023-03-03T23:10:40.037Z,100749.51
2023-03-03T23:13:06.859Z,100749.36
2023-03-03T23:15:33.955Z,100747.89
2023-03-03T23:18:00.343Z,100744.77
2023-03-03T23:20:29.257Z,100742.61
2023-03-03T23:22:55.983Z,100738.58
2023-03-03T23:25:23.369Z,100741.73
2023-03-03T23:27:50.555Z,100735.05
2023-03-03T23:30:17.546Z,100735.55
2023-03-03T23:32:45.460Z,100732.45
2023-03-03T23:35:12.138Z,100726.73
2023-03-03T23:37:38.796Z,100722.30
2023-03-03T23:40:06.216Z,100722.12
2023-03-03T23:42:32.780Z,100721.67
2023-03-03T23:44:59.414Z,100718.99
2023-03-03T23:47:25.964Z,100714.89
2023-03-03T23:49:52.268Z,100713.77
2023-03-03T23:52:18.781Z,100707.23
2023-03-03T23:54:45.520Z,100699.12
2023-03-03T23:57:12.251Z,100694.00
2023-03-03T23:59:39.142Z,100688.80
